Terminal Aerodrome Forecast
Issued by NWS

Home | Current Version | Previous Version | Text Only | Print | Product List | Glossary Off
Versions: 1 2 3 4 5 6 7 8 9 10 11 12 13 14 15 16 17 18 19 20 21 22 23

000
FTUS43 KMPX 172300
TAFAXN
TAF
KAXN 172333Z 1800/1824 06006KT P6SM SCT250
     FM181000 09007KT 6SM BR SCT006
      TEMPO 1810/1814 4SM BR BKN006
     FM181400 13008KT P6SM SCT015
     FM181800 16013G20KT P6SM SCT040=

USA.gov is the U.S. government's official web portal to all federal, state and local government web resources and services.